createdAt,value
2022-08-03T00:00:09.412Z,70.80
2022-08-03T00:00:41.550Z,70.98
2022-08-03T00:01:16.542Z,71.58
2022-08-03T00:01:48.137Z,71.87
2022-08-03T00:02:19.801Z,72.00
2022-08-03T00:02:51.501Z,71.84
2022-08-03T00:03:23.261Z,71.99
2022-08-03T00:03:55.297Z,73.38
2022-08-03T00:04:33.574Z,73.93
2022-08-03T00:05:08.400Z,73.04
2022-08-03T00:05:40.164Z,72.46
2022-08-03T00:06:36.816Z,72.46
2022-08-03T00:07:08.862Z,72.88
2022-08-03T00:07:41.171Z,72.72
2022-08-03T00:08:12.729Z,72.90
2022-08-03T00:08:44.481Z,72.98
2022-08-03T00:09:16.090Z,73.45
2022-08-03T00:09:47.669Z,73.86
2022-08-03T00:10:19.266Z,73.65
2022-08-03T00:10:50.902Z,73.49
2022-08-03T00:11:22.675Z,73.49
2022-08-03T00:11:54.401Z,73.42
2022-08-03T00:12:26.126Z,73.37
2022-08-03T00:12:57.810Z,73.17
2022-08-03T00:13:29.426Z,73.01
2022-08-03T00:14:01.328Z,73.02
2022-08-03T00:14:32.996Z,73.42
2022-08-03T00:15:08.307Z,73.33
2022-08-03T00:15:43.434Z,74.00
2022-08-03T00:16:15.284Z,73.89
2022-08-03T00:16:46.836Z,74.26
2022-08-03T00:17:18.647Z,73.93
2022-08-03T00:17:52.916Z,73.87
2022-08-03T00:18:25.528Z,74.07
2022-08-03T00:18:57.165Z,74.31
2022-08-03T00:19:28.814Z,74.20
2022-08-03T00:20:00.352Z,74.01
2022-08-03T00:20:31.999Z,74.80
2022-08-03T00:21:04.421Z,74.74
2022-08-03T00:21:36.054Z,75.12
2022-08-03T00:22:07.637Z,74.99
2022-08-03T00:22:39.282Z,74.66
2022-08-03T00:23:11.437Z,74.74
2022-08-03T00:23:51.397Z,74.61
2022-08-03T00:24:24.175Z,74.85
2022-08-03T00:24:55.805Z,74.94
2022-08-03T00:25:27.784Z,75.10
2022-08-03T00:25:59.355Z,74.95
2022-08-03T00:26:31.738Z,74.77
2022-08-03T00:27:03.329Z,75.18
2022-08-03T00:27:34.888Z,75.52
2022-08-03T00:28:08.619Z,75.28
2022-08-03T00:28:40.154Z,75.25
2022-08-03T00:29:11.882Z,75.00
2022-08-03T00:29:57.583Z,75.27
2022-08-03T00:30:32.486Z,75.42
2022-08-03T00:31:04.087Z,75.08
2022-08-03T00:31:52.192Z,74.67
2022-08-03T00:32:24.814Z,74.76
2022-08-03T00:32:56.946Z,74.62
2022-08-03T00:33:29.965Z,74.28
2022-08-03T00:34:32.611Z,74.99
2022-08-03T00:35:11.351Z,75.19
2022-08-03T00:35:50.136Z,75.14
2022-08-03T00:36:22.084Z,75.03
2022-08-03T00:36:53.686Z,74.92
2022-08-03T00:37:41.527Z,74.64
2022-08-03T00:38:13.981Z,74.94
2022-08-03T00:38:45.529Z,74.65
2022-08-03T00:39:17.086Z,74.68
2022-08-03T00:39:48.745Z,74.48
2022-08-03T00:40:20.872Z,74.71
2022-08-03T00:40:52.454Z,74.91
2022-08-03T00:41:24.310Z,74.49
2022-08-03T00:41:55.895Z,74.60
2022-08-03T00:42:27.468Z,74.85
2022-08-03T00:43:05.422Z,75.02
2022-08-03T00:43:36.986Z,75.07
2022-08-03T00:44:08.525Z,75.09
2022-08-03T00:44:45.166Z,75.26
2022-08-03T00:45:21.712Z,75.03
2022-08-03T00:45:54.730Z,75.11
2022-08-03T00:46:26.330Z,74.98
2022-08-03T00:46:57.972Z,75.02
2022-08-03T00:47:31.817Z,75.22
2022-08-03T00:48:05.042Z,75.24
2022-08-03T00:48:36.710Z,75.33
2022-08-03T00:49:08.386Z,75.20
2022-08-03T00:49:41.338Z,74.85
2022-08-03T00:50:13.480Z,74.84
2022-08-03T00:50:45.062Z,75.14
2022-08-03T00:51:16.866Z,74.82
2022-08-03T00:51:48.717Z,74.59
2022-08-03T00:52:20.544Z,74.68
2022-08-03T00:52:54.218Z,74.70
2022-08-03T00:53:25.986Z,74.81
2022-08-03T00:53:57.600Z,74.70
2022-08-03T00:54:29.874Z,74.70
2022-08-03T00:55:02.728Z,74.52
2022-08-03T00:55:36.256Z,74.79
2022-08-03T00:56:07.857Z,74.85
2022-08-03T00:56:41.048Z,75.12
2022-08-03T00:57:33.617Z,75.16
2022-08-03T00:58:06.688Z,75.32
2022-08-03T00:58:38.284Z,75.28
2022-08-03T00:59:14.484Z,75.09
2022-08-03T00:59:46.427Z,75.00
2022-08-03T01:00:23.697Z,76.06
2022-08-03T01:00:55.299Z,75.92
2022-08-03T01:01:26.992Z,75.67
2022-08-03T01:02:04.028Z,75.74
2022-08-03T01:02:35.979Z,75.62
2022-08-03T01:03:09.180Z,76.39
2022-08-03T01:03:41.253Z,76.14
2022-08-03T01:04:12.906Z,76.29
2022-08-03T01:04:44.456Z,76.36
2022-08-03T01:05:16.148Z,76.21
2022-08-03T01:05:53.809Z,76.87
2022-08-03T01:06:46.016Z,76.73
2022-08-03T01:07:26.644Z,76.62
2022-08-03T01:08:19.256Z,76.69
2022-08-03T01:09:12.285Z,76.80
2022-08-03T01:09:56.097Z,76.69
2022-08-03T01:10:32.555Z,76.74
2022-08-03T01:11:10.233Z,76.85
2022-08-03T01:12:00.608Z,76.73
2022-08-03T01:12:44.045Z,76.74
2022-08-03T01:14:03.736Z,76.47
2022-08-03T01:14:54.208Z,76.23
2022-08-03T01:15:36.666Z,76.46
2022-08-03T01:16:36.023Z,76.98
2022-08-03T01:17:25.643Z,77.60
2022-08-03T01:18:07.993Z,77.19
2022-08-03T01:19:13.250Z,77.18
2022-08-03T01:20:02.651Z,77.60
2022-08-03T01:20:37.062Z,78.09
2022-08-03T01:21:16.755Z,78.02
2022-08-03T01:21:51.024Z,78.03
2022-08-03T01:22:31.451Z,77.81
2022-08-03T01:23:18.020Z,78.48
2022-08-03T01:24:03.795Z,78.61
2022-08-03T01:24:50.826Z,78.70
2022-08-03T01:25:54.277Z,78.62
2022-08-03T01:26:53.800Z,78.43
2022-08-03T01:27:57.044Z,79.06
2022-08-03T01:28:34.806Z,79.02
2022-08-03T01:29:37.151Z,78.88
2022-08-03T01:30:12.024Z,78.78
2022-08-03T01:30:45.863Z,78.95
2022-08-03T01:31:23.891Z,78.80
2022-08-03T01:33:02.018Z,79.11
2022-08-03T01:33:02.301Z,78.77
2022-08-03T01:33:43.067Z,79.13
2022-08-03T01:34:16.864Z,79.04
2022-08-03T01:34:58.996Z,79.15
2022-08-03T01:35:45.494Z,78.94
2022-08-03T01:36:22.018Z,78.86
2022-08-03T01:36:57.581Z,78.90
2022-08-03T01:37:38.760Z,78.81
2022-08-03T01:38:24.498Z,78.58
2022-08-03T01:39:00.556Z,78.58
2022-08-03T01:39:33.283Z,78.60
2022-08-03T01:40:06.577Z,78.76
2022-08-03T01:40:40.816Z,78.87
2022-08-03T01:41:18.809Z,78.74
2022-08-03T01:41:59.435Z,78.48
2022-08-03T01:42:32.725Z,78.51
2022-08-03T01:43:06.070Z,78.74
2022-08-03T01:44:28.231Z,78.72
2022-08-03T01:44:37.058Z,78.76
2022-08-03T01:45:12.663Z,78.90
2022-08-03T01:45:45.032Z,78.70
2022-08-03T01:46:20.578Z,78.69
2022-08-03T01:46:53.248Z,78.79
2022-08-03T01:47:26.016Z,78.81
2022-08-03T01:47:58.970Z,78.78
2022-08-03T01:48:31.863Z,79.31
2022-08-03T01:49:09.257Z,79.33
2022-08-03T01:49:45.291Z,79.33
2022-08-03T01:50:21.100Z,79.22
2022-08-03T01:50:56.414Z,79.22
2022-08-03T01:52:00.854Z,78.83
2022-08-03T01:52:22.151Z,79.06
2022-08-03T01:52:55.489Z,79.08
2022-08-03T01:53:28.446Z,79.13
2022-08-03T01:54:00.977Z,79.51
2022-08-03T01:54:43.207Z,79.34
2022-08-03T01:55:18.808Z,78.88
2022-08-03T01:55:55.296Z,79.39
2022-08-03T01:56:29.245Z,79.06
2022-08-03T01:57:02.340Z,79.07
2022-08-03T01:57:35.182Z,78.81
2022-08-03T01:58:28.458Z,78.83
2022-08-03T01:59:02.667Z,78.91
2022-08-03T01:59:36.429Z,78.96
2022-08-03T02:00:09.847Z,78.89
2022-08-03T02:01:24.058Z,79.21
2022-08-03T02:02:15.295Z,79.16
2022-08-03T02:02:52.026Z,79.55
2022-08-03T02:03:24.455Z,79.12
2022-08-03T02:04:00.903Z,79.09
2022-08-03T02:04:34.594Z,79.22
2022-08-03T02:05:10.918Z,79.53
2022-08-03T02:05:47.142Z,79.47
2022-08-03T02:07:00.362Z,79.52
2022-08-03T02:07:14.474Z,79.67
2022-08-03T02:07:47.960Z,79.56
2022-08-03T02:08:19.857Z,79.56
2022-08-03T02:08:53.919Z,79.53
2022-08-03T02:09:27.821Z,79.46
2022-08-03T02:10:01.477Z,79.57
2022-08-03T02:10:35.447Z,79.88
2022-08-03T02:11:08.136Z,79.74
2022-08-03T02:11:40.903Z,79.44
2022-08-03T02:12:15.281Z,79.44
2022-08-03T02:12:51.132Z,79.66
2022-08-03T02:13:24.968Z,79.64
2022-08-03T02:13:58.451Z,79.38
2022-08-03T02:14:31.632Z,79.77
2022-08-03T02:15:03.982Z,79.71
2022-08-03T02:15:39.500Z,79.26
2022-08-03T02:16:12.669Z,79.38
2022-08-03T02:16:46.090Z,79.65
2022-08-03T02:17:39.564Z,79.92
2022-08-03T02:18:11.846Z,79.86
2022-08-03T02:18:43.578Z,79.79
2022-08-03T02:19:17.383Z,79.40
2022-08-03T02:19:50.847Z,79.34
2022-08-03T02:20:22.621Z,79.55
2022-08-03T02:20:55.762Z,79.74
2022-08-03T02:21:56.352Z,79.69
2022-08-03T02:22:22.650Z,79.73
2022-08-03T02:22:54.410Z,79.87
2022-08-03T02:23:26.085Z,80.34
2022-08-03T02:23:57.892Z,80.05
2022-08-03T02:24:30.137Z,80.26
2022-08-03T02:25:01.834Z,80.21
2022-08-03T02:25:38.777Z,80.41
2022-08-03T02:26:16.689Z,80.26
2022-08-03T02:26:49.801Z,80.29
2022-08-03T02:27:24.545Z,80.37
2022-08-03T02:28:01.317Z,80.59
2022-08-03T02:28:37.152Z,80.66
2022-08-03T02:29:16.378Z,80.90
2022-08-03T02:29:56.400Z,80.59
2022-08-03T02:30:39.112Z,80.64
2022-08-03T02:31:18.028Z,80.46
2022-08-03T02:31:51.122Z,80.58
2022-08-03T02:32:30.749Z,80.37
2022-08-03T02:33:02.946Z,80.53
2022-08-03T02:33:39.025Z,80.82
2022-08-03T02:34:14.192Z,80.78
2022-08-03T02:34:49.025Z,81.05
2022-08-03T02:35:24.492Z,81.00
2022-08-03T02:35:58.263Z,81.01
2022-08-03T02:36:31.921Z,81.06
2022-08-03T02:37:05.060Z,80.96
2022-08-03T02:37:42.990Z,81.08
2022-08-03T02:38:26.303Z,81.47
2022-08-03T02:39:00.784Z,81.50
2022-08-03T02:39:34.369Z,81.49
2022-08-03T02:40:08.102Z,81.67
2022-08-03T02:40:43.224Z,81.58
2022-08-03T02:41:18.107Z,81.44
2022-08-03T02:41:52.421Z,81.77
2022-08-03T02:42:27.023Z,81.67
2022-08-03T02:43:02.803Z,81.75
2022-08-03T02:44:05.555Z,82.15
2022-08-03T02:44:32.694Z,82.57
2022-08-03T02:45:08.348Z,82.48
2022-08-03T02:45:49.061Z,82.58
2022-08-03T02:46:25.560Z,82.49
2022-08-03T02:47:01.929Z,82.24
2022-08-03T02:47:53.233Z,82.17
2022-08-03T02:48:29.459Z,81.95
2022-08-03T02:49:34.953Z,82.19
2022-08-03T02:49:57.425Z,82.33
2022-08-03T02:50:30.699Z,82.69
2022-08-03T02:51:03.737Z,83.01
2022-08-03T02:51:37.664Z,83.16
2022-08-03T02:52:15.857Z,82.89
2022-08-03T02:52:49.654Z,82.76
2022-08-03T02:53:23.498Z,82.80
2022-08-03T02:53:56.581Z,82.72
2022-08-03T02:54:29.029Z,82.40
2022-08-03T02:55:03.374Z,82.43
2022-08-03T02:55:35.907Z,82.50
2022-08-03T02:56:15.671Z,82.75
2022-08-03T02:56:48.287Z,83.34
2022-08-03T02:57:21.595Z,82.91
2022-08-03T02:57:55.577Z,83.07
2022-08-03T02:58:27.475Z,83.03
2022-08-03T02:58:59.613Z,83.05
2022-08-03T02:59:32.198Z,82.70
2022-08-03T03:00:05.690Z,82.53
2022-08-03T03:00:38.699Z,82.36
2022-08-03T03:01:11.544Z,82.47
2022-08-03T03:01:44.669Z,82.82
2022-08-03T03:02:18.293Z,82.83
2022-08-03T03:02:51.855Z,82.78
2022-08-03T03:03:23.835Z,82.68
2022-08-03T03:04:00.224Z,82.64
2022-08-03T03:04:35.277Z,82.41
2022-08-03T03:05:52.344Z,82.35
2022-08-03T03:06:05.603Z,82.40
2022-08-03T03:06:39.343Z,82.32
2022-08-03T03:07:14.499Z,82.39
2022-08-03T03:07:51.693Z,82.79
2022-08-03T03:08:28.415Z,82.47
2022-08-03T03:09:01.469Z,82.02
2022-08-03T03:09:40.319Z,81.81
2022-08-03T03:10:13.593Z,81.88
2022-08-03T03:10:46.608Z,81.64
2022-08-03T03:11:21.453Z,81.72
2022-08-03T03:11:53.905Z,81.84
2022-08-03T03:12:26.793Z,81.91
2022-08-03T03:13:00.987Z,81.68
2022-08-03T03:13:32.845Z,81.63
2022-08-03T03:14:04.809Z,81.56
2022-08-03T03:14:40.893Z,81.83
2022-08-03T03:15:12.629Z,81.77
2022-08-03T03:15:45.500Z,81.75
2022-08-03T03:16:18.902Z,81.81
2022-08-03T03:16:52.481Z,81.92
2022-08-03T03:17:31.062Z,82.12
2022-08-03T03:18:03.435Z,82.24
2022-08-03T03:18:37.432Z,82.29
2022-08-03T03:19:11.657Z,82.63
2022-08-03T03:19:45.652Z,82.49
2022-08-03T03:20:29.800Z,82.50
2022-08-03T03:21:04.091Z,82.67
2022-08-03T03:21:37.422Z,82.73
2022-08-03T03:22:10.036Z,82.78
2022-08-03T03:22:43.498Z,82.96
2022-08-03T03:23:17.816Z,82.94
2022-08-03T03:23:50.186Z,83.03
2022-08-03T03:24:21.980Z,83.79
2022-08-03T03:24:54.769Z,83.96
2022-08-03T03:25:26.546Z,83.54
2022-08-03T03:25:59.033Z,83.42
2022-08-03T03:26:30.787Z,83.27
2022-08-03T03:27:03.580Z,83.39
2022-08-03T03:27:35.456Z,83.48
2022-08-03T03:28:07.630Z,83.44
2022-08-03T03:28:39.728Z,83.51
2022-08-03T03:29:11.924Z,83.48
2022-08-03T03:29:44.178Z,83.55
2022-08-03T03:30:15.797Z,83.19
2022-08-03T03:30:52.786Z,83.14
2022-08-03T03:31:24.575Z,82.89
2022-08-03T03:31:57.402Z,82.73
2022-08-03T03:32:29.864Z,82.96
2022-08-03T03:33:02.848Z,82.62
2022-08-03T03:33:35.354Z,82.72
2022-08-03T03:34:07.285Z,83.15
2022-08-03T03:34:39.066Z,82.97
2022-08-03T03:35:10.895Z,83.32
2022-08-03T03:35:44.653Z,83.16
2022-08-03T03:36:16.324Z,83.24
2022-08-03T03:36:48.003Z,83.29
2022-08-03T03:37:19.767Z,83.48
2022-08-03T03:37:52.274Z,83.46
2022-08-03T03:38:23.897Z,83.87
2022-08-03T03:38:55.524Z,83.72
2022-08-03T03:39:27.145Z,83.72
2022-08-03T03:39:58.776Z,83.65
2022-08-03T03:40:30.535Z,83.80
2022-08-03T03:41:02.753Z,83.83
2022-08-03T03:41:35.124Z,83.78
2022-08-03T03:42:06.872Z,84.22
2022-08-03T03:42:38.662Z,84.15
2022-08-03T03:43:12.185Z,83.88
2022-08-03T03:43:44.065Z,84.10
2022-08-03T03:44:16.042Z,83.95
2022-08-03T03:44:47.676Z,83.76
2022-08-03T03:45:20.691Z,83.70
2022-08-03T03:45:53.731Z,83.63
2022-08-03T03:46:25.760Z,83.70
2022-08-03T03:47:00.639Z,83.73
2022-08-03T03:47:36.296Z,83.84
2022-08-03T03:48:08.699Z,83.73
2022-08-03T03:48:40.566Z,83.84
2022-08-03T03:49:12.875Z,83.54
2022-08-03T03:49:45.549Z,83.75
2022-08-03T03:50:19.231Z,83.63
2022-08-03T03:50:50.950Z,83.49
2022-08-03T03:51:22.577Z,83.54
2022-08-03T03:51:55.446Z,83.35
2022-08-03T03:52:27.110Z,83.01
2022-08-03T03:52:59.048Z,82.91
2022-08-03T03:53:30.640Z,83.00
2022-08-03T03:54:05.805Z,83.07
2022-08-03T03:54:45.470Z,82.99
2022-08-03T03:55:18.331Z,82.90
2022-08-03T03:55:59.782Z,82.88
2022-08-03T03:56:34.366Z,82.83
2022-08-03T03:57:05.958Z,82.94
2022-08-03T03:57:37.550Z,82.74
2022-08-03T03:58:09.268Z,82.70
2022-08-03T03:58:40.855Z,82.96
2022-08-03T03:59:12.528Z,82.73
2022-08-03T03:59:44.485Z,82.57
2022-08-03T04:00:18.655Z,82.76
2022-08-03T04:00:50.963Z,82.47
2022-08-03T04:01:23.329Z,82.47
2022-08-03T04:01:59.131Z,82.40
2022-08-03T04:02:31.237Z,82.12
2022-08-03T04:03:02.925Z,82.03
2022-08-03T04:03:35.817Z,82.10
2022-08-03T04:04:25.641Z,81.85
2022-08-03T04:05:15.498Z,81.86
2022-08-03T04:06:05.946Z,81.78
2022-08-03T04:06:56.414Z,81.39
2022-08-03T04:08:01.505Z,81.05
2022-08-03T04:08:51.832Z,81.26
2022-08-03T04:09:41.975Z,80.99
2022-08-03T04:10:37.744Z,80.74
2022-08-03T04:11:14.710Z,80.99
2022-08-03T04:11:51.490Z,81.01
2022-08-03T04:12:26.437Z,80.93
2022-08-03T04:13:00.600Z,81.36
2022-08-03T04:13:42.486Z,81.31
2022-08-03T04:14:22.826Z,81.10
2022-08-03T04:14:57.026Z,81.12
2022-08-03T04:15:31.400Z,81.07
2022-08-03T04:16:04.224Z,80.96
2022-08-03T04:16:43.840Z,80.82
2022-08-03T04:17:17.113Z,80.96
2022-08-03T04:17:50.791Z,81.16
2022-08-03T04:18:23.578Z,81.11
2022-08-03T04:19:02.409Z,80.91
2022-08-03T04:19:51.336Z,80.95
2022-08-03T04:20:24.062Z,81.05
2022-08-03T04:20:57.167Z,80.83
2022-08-03T04:21:31.352Z,81.43
2022-08-03T04:22:06.572Z,81.29
2022-08-03T04:22:39.744Z,81.47
2022-08-03T04:23:15.441Z,81.68
2022-08-03T04:23:51.518Z,81.11
2022-08-03T04:24:26.557Z,80.98
2022-08-03T04:25:08.902Z,80.94
2022-08-03T04:25:41.306Z,81.51
2022-08-03T04:26:16.359Z,80.90
2022-08-03T04:26:52.773Z,81.03
2022-08-03T04:27:28.832Z,81.31
2022-08-03T04:28:21.026Z,81.62
2022-08-03T04:28:55.140Z,81.10
2022-08-03T04:29:30.838Z,81.05
2022-08-03T04:30:04.874Z,80.72
2022-08-03T04:30:38.906Z,80.73
2022-08-03T04:31:10.484Z,81.12
2022-08-03T04:31:43.304Z,81.04
2022-08-03T04:32:16.102Z,80.65
2022-08-03T04:32:51.816Z,80.56
2022-08-03T04:33:29.234Z,80.74
2022-08-03T04:34:02.541Z,80.66
2022-08-03T04:34:34.192Z,80.40
2022-08-03T04:35:06.860Z,80.34
2022-08-03T04:36:01.341Z,80.24
2022-08-03T04:36:33.635Z,79.96
2022-08-03T04:37:11.474Z,79.87
2022-08-03T04:37:47.974Z,80.03
2022-08-03T04:38:20.191Z,79.97
2022-08-03T04:38:57.416Z,79.98
2022-08-03T04:39:31.861Z,80.31
2022-08-03T04:40:10.606Z,80.12
2022-08-03T04:40:43.868Z,79.69
2022-08-03T04:41:16.896Z,79.60
2022-08-03T04:42:08.197Z,79.64
2022-08-03T04:42:41.978Z,79.60
2022-08-03T04:43:16.840Z,79.44
2022-08-03T04:43:51.267Z,79.16
2022-08-03T04:44:28.347Z,79.12
2022-08-03T04:45:02.786Z,79.11
2022-08-03T04:45:35.771Z,78.99
2022-08-03T04:46:08.693Z,79.11
2022-08-03T04:46:41.960Z,79.11
2022-08-03T04:47:22.800Z,78.86
2022-08-03T04:47:55.000Z,78.91
2022-08-03T04:48:26.750Z,78.87
2022-08-03T04:48:59.290Z,78.88
2022-08-03T04:49:31.820Z,78.79
2022-08-03T04:50:08.072Z,78.72
2022-08-03T04:50:43.123Z,78.60
2022-08-03T04:51:15.225Z,78.64
2022-08-03T04:51:48.917Z,78.88
2022-08-03T04:52:20.666Z,78.83
2022-08-03T04:52:52.246Z,78.51
2022-08-03T04:53:23.989Z,78.57
2022-08-03T04:53:55.634Z,78.40
2022-08-03T04:54:27.261Z,78.55
2022-08-03T04:54:58.930Z,78.39
2022-08-03T04:55:32.201Z,78.56
2022-08-03T04:56:05.575Z,78.69
2022-08-03T04:56:40.537Z,78.25
2022-08-03T04:57:22.259Z,78.23
2022-08-03T04:57:55.650Z,77.93
2022-08-03T04:58:27.293Z,78.39
2022-08-03T04:58:58.871Z,78.28
2022-08-03T04:59:30.485Z,78.16
2022-08-03T05:00:03.638Z,77.87
2022-08-03T05:00:35.409Z,78.18
2022-08-03T05:01:07.199Z,77.95
2022-08-03T05:01:40.781Z,77.78
2022-08-03T05:02:12.415Z,77.92
2022-08-03T05:02:44.021Z,78.12
2022-08-03T05:03:20.414Z,77.93
2022-08-03T05:03:55.693Z,77.98
2022-08-03T05:04:27.278Z,77.83
2022-08-03T05:04:59.577Z,77.78
2022-08-03T05:05:40.665Z,77.79
2022-08-03T05:06:22.045Z,77.50
2022-08-03T05:06:56.781Z,77.42
2022-08-03T05:07:35.417Z,77.45
2022-08-03T05:08:11.249Z,77.45
2022-08-03T05:08:46.968Z,77.67
2022-08-03T05:09:50.117Z,77.43
2022-08-03T05:10:15.900Z,77.29
2022-08-03T05:10:47.790Z,77.43
2022-08-03T05:11:19.531Z,77.33
2022-08-03T05:11:51.093Z,77.10
2022-08-03T05:12:23.760Z,77.05
2022-08-03T05:12:55.328Z,77.08
2022-08-03T05:13:26.953Z,77.07
2022-08-03T05:13:58.546Z,76.78
2022-08-03T05:14:30.368Z,76.76
2022-08-03T05:15:02.401Z,77.06
2022-08-03T05:15:34.005Z,76.93
2022-08-03T05:16:14.865Z,76.83
2022-08-03T05:16:46.507Z,76.61
2022-08-03T05:17:19.532Z,76.51
2022-08-03T05:17:51.101Z,76.64
2022-08-03T05:18:22.727Z,76.51
2022-08-03T05:18:54.293Z,76.33
2022-08-03T05:19:25.849Z,76.74
2022-08-03T05:19:57.449Z,76.23
2022-08-03T05:20:29.035Z,76.15
2022-08-03T05:21:00.655Z,76.11
2022-08-03T05:21:52.184Z,76.19
2022-08-03T05:22:24.086Z,76.43
2022-08-03T05:22:55.653Z,76.01
2022-08-03T05:23:27.700Z,75.86
2022-08-03T05:23:59.281Z,76.05
2022-08-03T05:24:30.849Z,75.63
2022-08-03T05:25:03.051Z,75.92
2022-08-03T05:25:34.735Z,75.92
2022-08-03T05:26:06.458Z,75.84
2022-08-03T05:26:38.099Z,75.63
2022-08-03T05:27:09.675Z,75.67
2022-08-03T05:27:41.353Z,75.66
2022-08-03T05:28:12.941Z,75.68
2022-08-03T05:28:50.682Z,75.50
2022-08-03T05:29:23.056Z,75.44
2022-08-03T05:29:54.727Z,75.51
2022-08-03T05:30:32.409Z,75.19
2022-08-03T05:31:06.157Z,75.24
2022-08-03T05:31:37.805Z,75.28
2022-08-03T05:32:09.436Z,75.28
2022-08-03T05:32:41.090Z,75.31
2022-08-03T05:33:12.778Z,75.29
2022-08-03T05:33:44.799Z,75.53
2022-08-03T05:34:16.378Z,75.21
2022-08-03T05:34:47.994Z,74.80
2022-08-03T05:35:57.366Z,74.88
2022-08-03T05:36:11.121Z,74.89
2022-08-03T05:36:42.748Z,74.75
2022-08-03T05:37:14.381Z,74.76
2022-08-03T05:37:54.509Z,74.81
2022-08-03T05:38:28.547Z,74.58
2022-08-03T05:39:05.631Z,74.64
2022-08-03T05:39:38.023Z,74.52
2022-08-03T05:40:10.289Z,74.38
2022-08-03T05:40:46.862Z,74.50
2022-08-03T05:41:36.550Z,74.42
2022-08-03T05:42:08.959Z,74.36
2022-08-03T05:42:40.535Z,74.08
2022-08-03T05:43:12.143Z,74.29
2022-08-03T05:43:44.882Z,74.30
2022-08-03T05:44:16.466Z,74.04
2022-08-03T05:44:48.105Z,73.67
2022-08-03T05:45:19.984Z,73.73
2022-08-03T05:46:11.750Z,73.39
2022-08-03T05:46:43.179Z,73.65
2022-08-03T05:47:14.791Z,73.73
2022-08-03T05:47:46.657Z,73.70
2022-08-03T05:48:18.248Z,73.85
2022-08-03T05:48:50.204Z,73.66
2022-08-03T05:49:21.801Z,73.21
2022-08-03T05:49:53.413Z,73.24
2022-08-03T05:50:25.097Z,72.82
2022-08-03T05:50:56.725Z,72.82
2022-08-03T05:51:28.964Z,72.89
2022-08-03T05:52:12.106Z,72.78
2022-08-03T05:52:48.073Z,72.59
2022-08-03T05:53:19.953Z,72.81
2022-08-03T05:53:52.257Z,72.63
2022-08-03T05:54:23.839Z,72.33
2022-08-03T05:55:16.081Z,72.38
2022-08-03T05:55:51.313Z,72.65
2022-08-03T05:56:25.879Z,72.61
2022-08-03T05:56:57.517Z,72.80
2022-08-03T05:57:30.227Z,72.44
2022-08-03T05:58:03.858Z,72.42
2022-08-03T05:58:35.474Z,72.34
2022-08-03T05:59:22.773Z,72.15
2022-08-03T05:59:59.052Z,71.82
2022-08-03T06:00:30.754Z,71.96
2022-08-03T06:01:02.812Z,72.12
2022-08-03T06:01:34.438Z,72.16
2022-08-03T06:02:06.228Z,72.43
2022-08-03T06:02:38.254Z,72.23
2022-08-03T06:03:09.941Z,72.10
2022-08-03T06:03:41.586Z,72.08
2022-08-03T06:04:13.406Z,71.92
2022-08-03T06:04:45.507Z,71.89
2022-08-03T06:05:17.129Z,71.69
2022-08-03T06:05:59.952Z,71.89
2022-08-03T06:06:32.561Z,71.70
2022-08-03T06:07:04.177Z,71.73
2022-08-03T06:07:36.042Z,71.60
2022-08-03T06:08:07.829Z,71.52
2022-08-03T06:08:40.415Z,71.59
2022-08-03T06:09:11.986Z,72.03
2022-08-03T06:10:34.880Z,71.56
2022-08-03T06:10:37.852Z,71.02
2022-08-03T06:11:10.027Z,70.97
2022-08-03T06:11:42.145Z,70.78
2022-08-03T06:12:14.339Z,70.39
2022-08-03T06:12:49.304Z,70.42
2022-08-03T06:13:20.878Z,70.67
2022-08-03T06:13:52.452Z,70.64
2022-08-03T06:14:24.021Z,70.49
2022-08-03T06:14:55.753Z,70.06
2022-08-03T06:15:27.337Z,69.58
2022-08-03T06:15:58.913Z,69.49
2022-08-03T06:16:30.605Z,69.64
2022-08-03T06:17:02.181Z,69.14
2022-08-03T06:17:37.614Z,69.29
2022-08-03T06:18:09.456Z,69.35
2022-08-03T06:18:41.191Z,68.92
2022-08-03T06:19:12.790Z,69.06
2022-08-03T06:19:44.374Z,69.09
2022-08-03T06:20:18.640Z,68.53
2022-08-03T06:20:50.915Z,68.54
2022-08-03T06:21:23.933Z,68.58
2022-08-03T06:21:58.761Z,68.54
2022-08-03T06:22:31.438Z,68.33
2022-08-03T06:23:03.536Z,67.74
2022-08-03T06:23:53.499Z,67.96
2022-08-03T06:24:27.208Z,67.41
2022-08-03T06:25:04.799Z,66.98
2022-08-03T06:25:37.370Z,65.20
2022-08-03T06:26:09.028Z,64.68
2022-08-03T06:26:40.602Z,65.31
2022-08-03T06:27:12.333Z,65.71
2022-08-03T06:27:43.895Z,64.73
2022-08-03T06:28:42.477Z,65.05
2022-08-03T06:29:08.533Z,65.23
2022-08-03T06:29:41.480Z,64.46
2022-08-03T06:30:14.577Z,64.63
2022-08-03T06:30:47.832Z,64.47
2022-08-03T06:31:23.977Z,64.64
2022-08-03T06:31:55.760Z,64.83
2022-08-03T06:32:27.364Z,65.06
2022-08-03T06:32:58.951Z,64.98
2022-08-03T06:34:30.045Z,65.10
2022-08-03T06:34:33.938Z,66.27
2022-08-03T06:35:08.582Z,64.36
2022-08-03T06:35:40.154Z,64.86
2022-08-03T06:36:14.093Z,64.71
2022-08-03T06:36:48.470Z,64.86
2022-08-03T06:37:20.107Z,63.29
2022-08-03T06:37:51.975Z,63.39
2022-08-03T06:38:23.634Z,64.06
2022-08-03T06:38:55.174Z,64.02
2022-08-03T06:39:26.742Z,64.23
2022-08-03T06:39:58.366Z,63.54
2022-08-03T06:40:31.314Z,63.24
2022-08-03T06:41:03.003Z,63.62
2022-08-03T06:41:37.494Z,63.79
2022-08-03T06:42:10.563Z,63.62
2022-08-03T06:42:42.640Z,63.28
2022-08-03T06:43:16.056Z,63.61
2022-08-03T06:44:03.305Z,63.05
2022-08-03T06:44:37.583Z,62.26
2022-08-03T06:45:09.798Z,62.51
2022-08-03T06:45:42.085Z,62.45
2022-08-03T06:46:13.668Z,61.63
2022-08-03T06:46:45.322Z,61.64
2022-08-03T06:47:17.310Z,61.75
2022-08-03T06:48:06.717Z,61.21
2022-08-03T06:48:38.299Z,61.47
2022-08-03T06:49:09.954Z,61.68
2022-08-03T06:49:41.827Z,61.97
2022-08-03T06:50:17.947Z,61.15
2022-08-03T06:50:50.651Z,61.01
2022-08-03T06:51:23.663Z,61.13
2022-08-03T06:52:15.248Z,61.31
2022-08-03T06:53:06.922Z,61.01
2022-08-03T06:53:38.944Z,61.29
2022-08-03T06:54:10.935Z,61.50
2022-08-03T06:54:42.571Z,60.76
2022-08-03T06:55:14.287Z,60.70
2022-08-03T06:55:45.872Z,60.59
2022-08-03T06:56:17.465Z,60.81
2022-08-03T06:56:49.086Z,60.62
2022-08-03T06:57:20.702Z,60.65
2022-08-03T06:57:52.323Z,60.70
2022-08-03T06:58:23.938Z,61.08
2022-08-03T06:58:55.513Z,61.08
2022-08-03T07:00:06.519Z,61.53
2022-08-03T07:00:19.331Z,60.48
2022-08-03T07:00:50.934Z,60.23
2022-08-03T07:01:22.564Z,60.16
2022-08-03T07:01:54.282Z,60.93
2022-08-03T07:02:28.270Z,60.21
2022-08-03T07:03:00.316Z,60.16
2022-08-03T07:03:31.917Z,60.08
2022-08-03T07:04:04.962Z,60.07
2022-08-03T07:04:36.521Z,60.40
2022-08-03T07:05:09.515Z,59.33
2022-08-03T07:05:42.334Z,59.74
2022-08-03T07:06:13.926Z,59.95
2022-08-03T07:06:45.478Z,59.82
2022-08-03T07:07:17.824Z,59.47
2022-08-03T07:07:49.613Z,59.76
2022-08-03T07:08:33.157Z,59.49
2022-08-03T07:09:05.729Z,59.77
2022-08-03T07:09:37.377Z,60.04
2022-08-03T07:10:10.051Z,59.55
2022-08-03T07:10:41.666Z,59.19
2022-08-03T07:11:13.267Z,59.20
2022-08-03T07:11:44.841Z,59.20
2022-08-03T07:12:16.485Z,59.69
2022-08-03T07:12:55.586Z,59.21
2022-08-03T07:13:27.893Z,60.00
2022-08-03T07:13:59.493Z,60.20
2022-08-03T07:14:31.146Z,59.25
2022-08-03T07:15:04.046Z,59.08
2022-08-03T07:15:55.547Z,59.79
2022-08-03T07:16:27.444Z,58.56
2022-08-03T07:16:59.067Z,58.33
2022-08-03T07:17:33.591Z,58.46
2022-08-03T07:18:05.357Z,58.65
2022-08-03T07:18:40.374Z,58.20
2022-08-03T07:19:12.316Z,58.20
2022-08-03T07:19:43.924Z,58.04
2022-08-03T07:20:17.450Z,57.97
2022-08-03T07:20:49.064Z,57.56
2022-08-03T07:21:20.658Z,57.75
2022-08-03T07:21:53.623Z,57.64
2022-08-03T07:22:25.720Z,57.79
2022-08-03T07:22:57.298Z,57.47
2022-08-03T07:23:28.864Z,57.25
2022-08-03T07:24:00.440Z,57.46
2022-08-03T07:24:32.076Z,57.37
2022-08-03T07:25:04.976Z,57.55
2022-08-03T07:25:37.357Z,57.28
2022-08-03T07:26:08.934Z,57.00
2022-08-03T07:26:40.546Z,57.09
2022-08-03T07:27:12.134Z,57.16
2022-08-03T07:27:51.693Z,57.17
2022-08-03T07:28:23.534Z,57.34
2022-08-03T07:28:55.124Z,57.36
2022-08-03T07:29:26.724Z,57.21
2022-08-03T07:29:58.739Z,56.69
2022-08-03T07:30:30.375Z,57.06
2022-08-03T07:31:01.940Z,56.80
2022-08-03T07:31:34.430Z,57.16
2022-08-03T07:32:06.277Z,57.02
2022-08-03T07:32:49.838Z,57.20
2022-08-03T07:33:22.555Z,56.94
2022-08-03T07:33:54.135Z,56.51